createdAt,value
2023-05-19T00:01:31.335Z,5.55
2023-05-19T00:04:02.922Z,6.22
2023-05-19T00:06:33.365Z,6.25
2023-05-19T00:09:02.677Z,5.95
2023-05-19T00:11:30.469Z,5.70
2023-05-19T00:13:59.414Z,5.47
2023-05-19T00:16:29.464Z,7.00
2023-05-19T00:18:58.445Z,6.00
2023-05-19T00:21:26.014Z,6.05
2023-05-19T00:23:54.905Z,5.60
2023-05-19T00:26:23.333Z,5.60
2023-05-19T00:28:51.060Z,5.90
2023-05-19T00:31:18.537Z,5.82
2023-05-19T00:33:47.439Z,5.60
2023-05-19T00:36:15.950Z,6.40
2023-05-19T00:38:43.312Z,6.20
2023-05-19T00:41:12.447Z,6.18
2023-05-19T00:43:42.052Z,6.40
2023-05-19T00:46:11.239Z,6.18
2023-05-19T00:48:38.520Z,6.10
2023-05-19T00:51:06.796Z,6.53
2023-05-19T00:53:35.478Z,6.25
2023-05-19T00:56:03.897Z,6.25
2023-05-19T00:58:33.977Z,6.03
2023-05-19T01:01:05.292Z,7.43
2023-05-19T01:03:35.779Z,6.90
2023-05-19T01:06:07.523Z,7.07
2023-05-19T01:08:37.415Z,7.10
2023-05-19T01:11:06.228Z,6.65
2023-05-19T01:13:35.961Z,6.77
2023-05-19T01:16:09.863Z,6.40
2023-05-19T01:18:46.488Z,7.78
2023-05-19T01:22:03.281Z,7.68
2023-05-19T01:24:50.315Z,8.18
2023-05-19T01:27:39.037Z,8.07
2023-05-19T01:30:30.682Z,7.35
2023-05-19T01:33:00.754Z,7.43
2023-05-19T01:35:29.541Z,6.95
2023-05-19T01:37:58.591Z,7.20
2023-05-19T01:40:27.877Z,6.40
2023-05-19T01:42:57.836Z,6.82
2023-05-19T01:45:26.046Z,7.20
2023-05-19T01:47:57.471Z,6.93
2023-05-19T01:50:25.077Z,6.80
2023-05-19T01:52:52.660Z,6.10
2023-05-19T01:55:21.358Z,6.13
2023-05-19T01:58:00.727Z,7.18
2023-05-19T02:00:34.813Z,6.75
2023-05-19T02:03:21.631Z,6.50
2023-05-19T02:05:56.494Z,7.27
2023-05-19T02:08:27.920Z,6.65
2023-05-19T02:11:00.992Z,6.90
2023-05-19T02:13:32.229Z,7.20
2023-05-19T02:16:05.529Z,7.43
2023-05-19T02:18:35.427Z,7.67
2023-05-19T02:21:02.710Z,7.32
2023-05-19T02:23:29.925Z,7.07
2023-05-19T02:25:57.226Z,6.82
2023-05-19T02:28:28.639Z,7.47
2023-05-19T02:30:55.978Z,6.53
2023-05-19T02:33:26.159Z,6.88
2023-05-19T02:35:55.097Z,7.43
2023-05-19T02:38:22.506Z,7.50
2023-05-19T02:40:51.161Z,7.68
2023-05-19T02:43:18.488Z,7.00
2023-05-19T02:45:46.090Z,7.25
2023-05-19T02:48:13.705Z,7.10
2023-05-19T02:50:41.206Z,6.97
2023-05-19T02:53:09.951Z,6.82
2023-05-19T02:55:37.564Z,6.83
2023-05-19T02:58:05.401Z,7.20
2023-05-19T03:00:32.958Z,7.25
2023-05-19T03:03:03.022Z,7.40
2023-05-19T03:05:31.399Z,6.93
2023-05-19T03:07:58.741Z,7.40
2023-05-19T03:10:27.447Z,7.03
2023-05-19T03:12:57.232Z,6.68
2023-05-19T03:15:24.552Z,7.80
2023-05-19T03:17:52.161Z,7.28
2023-05-19T03:20:19.606Z,8.10
2023-05-19T03:22:47.060Z,7.53
2023-05-19T03:25:14.626Z,7.53
2023-05-19T03:27:43.536Z,7.68
2023-05-19T03:30:12.129Z,7.43
2023-05-19T03:32:40.450Z,7.30
2023-05-19T03:35:08.384Z,7.32
2023-05-19T03:37:35.715Z,7.93
2023-05-19T03:40:03.993Z,7.43
2023-05-19T03:42:31.706Z,8.75
2023-05-19T03:45:02.125Z,7.47
2023-05-19T03:47:29.456Z,7.78
2023-05-19T03:49:56.945Z,8.30
2023-05-19T03:52:25.160Z,8.23
2023-05-19T03:54:55.972Z,8.60
2023-05-19T03:57:23.377Z,8.40
2023-05-19T03:59:53.404Z,8.45
2023-05-19T04:02:25.174Z,7.93
2023-05-19T04:04:54.446Z,8.88
2023-05-19T04:07:21.760Z,8.45
2023-05-19T04:09:49.579Z,8.77
2023-05-19T04:12:16.972Z,8.48
2023-05-19T04:14:44.212Z,9.50
2023-05-19T04:17:12.015Z,8.50
2023-05-19T04:19:46.573Z,8.10
2023-05-19T04:22:14.015Z,8.17
2023-05-19T04:24:41.821Z,8.18
2023-05-19T04:27:12.064Z,7.60
2023-05-19T04:29:40.811Z,8.13
2023-05-19T04:32:08.628Z,8.68
2023-05-19T04:34:36.069Z,8.83
2023-05-19T04:37:04.710Z,8.75
2023-05-19T04:39:32.277Z,8.55
2023-05-19T04:42:00.132Z,8.30
2023-05-19T04:44:27.360Z,8.15
2023-05-19T04:46:58.142Z,8.57
2023-05-19T04:49:27.232Z,8.70
2023-05-19T04:51:55.913Z,8.05
2023-05-19T04:54:24.634Z,8.90
2023-05-19T04:56:51.935Z,8.50
2023-05-19T04:59:19.184Z,8.00
2023-05-19T05:01:46.447Z,8.00
2023-05-19T05:04:13.999Z,8.57
2023-05-19T05:06:47.848Z,8.40
2023-05-19T05:09:17.804Z,9.50
2023-05-19T05:11:47.269Z,8.90
2023-05-19T05:14:17.784Z,8.65
2023-05-19T05:16:45.972Z,8.32
2023-05-19T05:19:14.161Z,8.88
2023-05-19T05:21:41.913Z,9.02
2023-05-19T05:24:10.771Z,8.37
2023-05-19T05:26:38.775Z,8.40
2023-05-19T05:29:10.628Z,8.02
2023-05-19T05:31:40.839Z,8.73
2023-05-19T05:34:08.095Z,9.30
2023-05-19T05:36:35.358Z,9.07
2023-05-19T05:39:03.136Z,9.05
2023-05-19T05:41:35.418Z,8.32
2023-05-19T05:44:12.169Z,9.23
2023-05-19T05:46:40.173Z,7.55
2023-05-19T05:49:08.616Z,8.47
2023-05-19T05:51:36.724Z,8.45
2023-05-19T05:54:12.045Z,8.75
2023-05-19T05:56:41.319Z,8.80
2023-05-19T05:59:10.028Z,8.85
2023-05-19T06:01:37.472Z,8.20
2023-05-19T06:04:05.201Z,8.48
2023-05-19T06:06:32.992Z,8.38
2023-05-19T06:09:00.339Z,8.70
2023-05-19T06:11:28.983Z,8.25
2023-05-19T06:14:00.742Z,7.50
2023-05-19T06:16:33.534Z,8.05
2023-05-19T06:19:07.005Z,8.93
2023-05-19T06:21:39.081Z,8.77
2023-05-19T06:24:06.993Z,9.00
2023-05-19T06:26:38.952Z,9.13
2023-05-19T06:29:10.527Z,8.65
2023-05-19T06:31:47.479Z,9.93
2023-05-19T06:34:17.840Z,9.45
2023-05-19T06:36:55.290Z,9.07
2023-05-19T06:39:28.207Z,8.57
2023-05-19T06:41:55.575Z,8.57
2023-05-19T06:44:22.980Z,8.63
2023-05-19T06:46:51.788Z,7.85
2023-05-19T06:49:19.196Z,8.32
2023-05-19T06:52:02.686Z,9.07
2023-05-19T06:54:29.956Z,8.30
2023-05-19T06:56:57.207Z,8.63
2023-05-19T06:59:24.489Z,8.73
2023-05-19T07:01:53.456Z,8.65
2023-05-19T07:04:21.622Z,7.53
2023-05-19T07:06:50.463Z,8.00
2023-05-19T07:09:19.839Z,8.57
2023-05-19T07:11:47.618Z,7.30
2023-05-19T07:14:15.160Z,7.70
2023-05-19T07:16:44.101Z,8.53
2023-05-19T07:19:12.869Z,7.47
2023-05-19T07:21:40.212Z,7.60
2023-05-19T07:24:07.699Z,7.45
2023-05-19T07:26:34.990Z,8.23
2023-05-19T07:29:07.524Z,8.20
2023-05-19T07:31:34.926Z,9.20
2023-05-19T07:34:03.281Z,8.82
2023-05-19T07:36:49.732Z,8.27
2023-05-19T07:39:19.554Z,7.72
2023-05-19T07:42:30.607Z,8.00
2023-05-19T07:45:03.321Z,7.32
2023-05-19T07:47:39.631Z,8.77
2023-05-19T07:50:10.025Z,8.15
2023-05-19T07:52:38.674Z,8.10
2023-05-19T07:55:06.566Z,7.57
2023-05-19T07:57:33.995Z,7.60
2023-05-19T08:00:07.906Z,7.10
2023-05-19T08:02:35.870Z,7.68
2023-05-19T08:05:03.734Z,7.75
2023-05-19T08:07:32.417Z,8.07
2023-05-19T08:10:01.459Z,7.68
2023-05-19T08:12:31.365Z,8.50
2023-05-19T08:15:01.026Z,7.95
2023-05-19T08:17:28.872Z,7.28
2023-05-19T08:19:56.177Z,7.80
2023-05-19T08:22:23.415Z,7.10
2023-05-19T08:24:51.916Z,7.63
2023-05-19T08:27:21.181Z,7.60
2023-05-19T08:29:48.999Z,7.05
2023-05-19T08:32:17.499Z,6.80
2023-05-19T08:34:44.787Z,7.40
2023-05-19T08:37:14.274Z,7.13
2023-05-19T08:39:41.737Z,6.53
2023-05-19T08:42:10.070Z,6.32
2023-05-19T08:44:40.254Z,6.33
2023-05-19T08:47:13.524Z,6.80
2023-05-19T08:49:47.655Z,6.93
2023-05-19T08:52:25.530Z,6.43
2023-05-19T08:55:01.511Z,6.40
2023-05-19T08:57:29.324Z,6.27
2023-05-19T08:59:58.901Z,6.85
2023-05-19T09:02:27.674Z,6.50
2023-05-19T09:04:58.064Z,7.13
2023-05-19T09:07:26.330Z,7.13
2023-05-19T09:09:53.729Z,6.77
2023-05-19T09:12:21.410Z,6.22
2023-05-19T09:14:49.005Z,6.68
2023-05-19T09:17:19.646Z,6.10
2023-05-19T09:19:50.306Z,5.78
2023-05-19T09:22:20.905Z,7.13
2023-05-19T09:24:49.755Z,6.65
2023-05-19T09:27:24.097Z,7.28
2023-05-19T09:29:51.438Z,6.50
2023-05-19T09:32:29.079Z,7.15
2023-05-19T09:34:57.197Z,6.20
2023-05-19T09:37:24.890Z,6.35
2023-05-19T09:39:53.382Z,7.20
2023-05-19T09:42:26.011Z,6.57
2023-05-19T09:45:03.179Z,6.22
2023-05-19T09:47:36.996Z,5.70
2023-05-19T09:50:06.736Z,6.50
2023-05-19T09:52:36.487Z,6.55
2023-05-19T09:55:05.177Z,6.30
2023-05-19T09:57:38.663Z,6.22
2023-05-19T10:00:25.944Z,5.27
2023-05-19T10:02:57.507Z,5.47
2023-05-19T10:05:25.381Z,5.93
2023-05-19T10:07:54.654Z,6.03
2023-05-19T10:10:23.054Z,5.18
2023-05-19T10:13:09.782Z,5.53
2023-05-19T10:15:57.295Z,5.72
2023-05-19T10:18:45.507Z,5.30
2023-05-19T10:21:15.908Z,5.60
2023-05-19T10:23:46.223Z,5.30
2023-05-19T10:26:17.413Z,5.30
2023-05-19T10:28:49.063Z,5.00
2023-05-19T10:31:21.799Z,4.63
2023-05-19T10:34:07.308Z,4.78
2023-05-19T10:36:46.039Z,5.25
2023-05-19T10:39:19.148Z,5.43
2023-05-19T10:41:59.728Z,5.88
2023-05-19T10:44:37.137Z,5.32
2023-05-19T10:47:12.583Z,5.90
2023-05-19T10:49:41.699Z,6.03
2023-05-19T10:52:22.157Z,5.80
2023-05-19T10:54:54.813Z,6.07
2023-05-19T10:57:32.298Z,5.45
2023-05-19T11:00:11.814Z,5.97
2023-05-19T11:02:41.368Z,6.07
2023-05-19T11:05:11.141Z,5.47
2023-05-19T11:07:41.578Z,6.22
2023-05-19T11:10:09.603Z,5.85
2023-05-19T11:12:45.687Z,5.90
2023-05-19T11:15:17.630Z,5.78
2023-05-19T11:17:48.843Z,5.40
2023-05-19T11:20:26.478Z,5.18
2023-05-19T11:23:10.262Z,5.93
2023-05-19T11:25:45.210Z,5.57
2023-05-19T11:28:13.730Z,5.80
2023-05-19T11:30:46.694Z,5.30
2023-05-19T11:33:14.359Z,5.45
2023-05-19T11:35:45.278Z,5.85
2023-05-19T11:38:14.097Z,5.88
2023-05-19T11:40:46.574Z,5.25
2023-05-19T11:43:13.880Z,5.30
2023-05-19T11:45:41.110Z,5.55
2023-05-19T11:48:11.634Z,5.35
2023-05-19T11:50:46.225Z,5.43
2023-05-19T11:53:14.446Z,5.85
2023-05-19T11:55:46.403Z,5.80
2023-05-19T11:58:14.181Z,5.40
2023-05-19T12:00:44.882Z,5.50
2023-05-19T12:03:12.329Z,6.40
2023-05-19T12:05:44.881Z,5.88
2023-05-19T12:08:16.273Z,6.30
2023-05-19T12:10:43.603Z,6.47
2023-05-19T12:13:11.183Z,5.70
2023-05-19T12:15:39.274Z,5.85
2023-05-19T12:18:07.562Z,5.55
2023-05-19T12:20:38.102Z,5.50
2023-05-19T12:23:11.962Z,5.93
2023-05-19T12:25:39.387Z,5.80
2023-05-19T12:28:07.399Z,5.15
2023-05-19T12:30:35.455Z,4.30
2023-05-19T12:33:03.525Z,4.10
2023-05-19T12:35:34.249Z,4.10
2023-05-19T12:38:05.871Z,4.40
2023-05-19T12:40:36.004Z,4.05
2023-05-19T12:43:04.267Z,4.60
2023-05-19T12:45:35.165Z,5.10
2023-05-19T12:48:03.817Z,4.50
2023-05-19T12:50:31.771Z,4.65
2023-05-19T12:53:03.831Z,4.22
2023-05-19T12:55:31.207Z,4.53
2023-05-19T12:57:59.990Z,4.10
2023-05-19T13:00:32.622Z,3.92
2023-05-19T13:03:01.689Z,3.75
2023-05-19T13:05:30.991Z,3.22
2023-05-19T13:07:59.554Z,3.65
2023-05-19T13:10:27.784Z,4.10
2023-05-19T13:12:55.871Z,4.10
2023-05-19T13:15:29.711Z,4.00
2023-05-19T13:17:57.058Z,3.42
2023-05-19T13:20:26.375Z,3.80
2023-05-19T13:22:56.119Z,3.53
2023-05-19T13:25:23.737Z,4.47
2023-05-19T13:27:51.219Z,4.18
2023-05-19T13:30:19.192Z,3.22
2023-05-19T13:32:47.971Z,3.50
2023-05-19T13:35:15.967Z,3.20
2023-05-19T13:37:43.434Z,3.90
2023-05-19T13:40:11.733Z,3.88
2023-05-19T13:42:39.230Z,3.75
2023-05-19T13:45:07.591Z,3.50
2023-05-19T13:47:34.906Z,3.60
2023-05-19T13:50:05.781Z,3.90
2023-05-19T13:52:33.676Z,3.67
2023-05-19T13:55:00.976Z,3.38
2023-05-19T13:57:28.286Z,3.70
2023-05-19T14:00:01.573Z,3.80
2023-05-19T14:02:31.212Z,3.67
2023-05-19T14:04:58.712Z,4.15
2023-05-19T14:07:28.393Z,3.20
2023-05-19T14:09:55.700Z,3.20
2023-05-19T14:12:27.794Z,3.47
2023-05-19T14:15:02.317Z,3.65
2023-05-19T14:17:29.754Z,3.53
2023-05-19T14:19:57.029Z,3.72
2023-05-19T14:22:24.317Z,3.60
2023-05-19T14:24:52.947Z,3.93
2023-05-19T14:27:20.172Z,3.42
2023-05-19T14:29:48.918Z,3.72
2023-05-19T14:32:16.749Z,3.70
2023-05-19T14:34:44.037Z,3.83
2023-05-19T14:37:11.399Z,3.67
2023-05-19T14:39:38.687Z,3.58
2023-05-19T14:42:07.568Z,3.45
2023-05-19T14:44:34.907Z,3.63
2023-05-19T14:47:02.594Z,3.25
2023-05-19T14:49:30.031Z,3.50
2023-05-19T14:51:57.283Z,3.45
2023-05-19T14:54:24.540Z,5.78
2023-05-19T14:56:51.851Z,3.20
2023-05-19T14:59:21.786Z,2.92
2023-05-19T15:01:49.106Z,3.30
2023-05-19T15:04:16.399Z,3.28
2023-05-19T15:06:44.312Z,3.33
2023-05-19T15:09:14.653Z,3.40
2023-05-19T15:11:41.963Z,3.10
2023-05-19T15:14:09.200Z,3.20
2023-05-19T15:16:37.921Z,3.67
2023-05-19T15:19:05.320Z,3.20
2023-05-19T15:21:32.634Z,3.33
2023-05-19T15:23:59.811Z,3.40
2023-05-19T15:26:29.541Z,3.40
2023-05-19T15:28:56.974Z,3.15
2023-05-19T15:31:24.354Z,3.65
2023-05-19T15:33:52.944Z,3.28
2023-05-19T15:36:20.400Z,8.52
2023-05-19T15:38:47.636Z,3.90
2023-05-19T15:41:14.898Z,3.92
2023-05-19T15:43:42.090Z,3.70
2023-05-19T15:46:09.454Z,3.70
2023-05-19T15:48:36.760Z,4.25
2023-05-19T15:51:05.799Z,4.40
2023-05-19T15:53:33.041Z,3.88
2023-05-19T15:56:00.664Z,3.85
2023-05-19T15:58:28.950Z,4.00
2023-05-19T16:00:56.711Z,4.60
2023-05-19T16:03:24.090Z,7.00
2023-05-19T16:05:52.705Z,4.45
2023-05-19T16:08:21.449Z,4.60
2023-05-19T16:10:49.018Z,4.85
2023-05-19T16:13:16.378Z,3.78
2023-05-19T16:15:43.587Z,3.60
2023-05-19T16:18:11.709Z,3.05
2023-05-19T16:20:39.186Z,3.17
2023-05-19T16:23:06.489Z,4.13
2023-05-19T16:25:35.103Z,3.45
2023-05-19T16:28:02.485Z,3.40
2023-05-19T16:30:29.931Z,4.25
2023-05-19T16:32:57.371Z,3.97
2023-05-19T16:35:24.747Z,4.38
2023-05-19T16:37:52.022Z,4.57
2023-05-19T16:40:20.104Z,3.40
2023-05-19T16:42:48.779Z,3.80
2023-05-19T16:45:19.163Z,3.15
2023-05-19T16:47:46.420Z,4.00
2023-05-19T16:50:13.647Z,4.60
2023-05-19T16:52:40.939Z,4.07
2023-05-19T16:55:09.100Z,3.88
2023-05-19T16:57:36.358Z,3.90
2023-05-19T17:00:05.809Z,3.63
2023-05-19T17:02:33.098Z,4.32
2023-05-19T17:05:00.502Z,3.90
2023-05-19T17:07:29.282Z,4.68
2023-05-19T17:09:56.676Z,5.00
2023-05-19T17:12:24.041Z,4.05
2023-05-19T17:14:52.332Z,4.25
2023-05-19T17:17:20.920Z,6.80
2023-05-19T17:19:48.145Z,5.22
2023-05-19T17:22:15.424Z,4.43
2023-05-19T17:24:42.858Z,4.90
2023-05-19T17:27:10.095Z,4.75
2023-05-19T17:29:37.307Z,4.93
2023-05-19T17:32:05.097Z,9.35
2023-05-19T17:34:33.828Z,6.68
2023-05-19T17:37:01.492Z,4.97
2023-05-19T17:39:28.760Z,5.93
2023-05-19T17:41:56.474Z,6.53
2023-05-19T17:44:23.849Z,9.57
2023-05-19T17:46:51.749Z,12.40
2023-05-19T17:49:19.046Z,15.85
2023-05-19T17:51:47.886Z,13.52
2023-05-19T17:54:15.730Z,12.50
2023-05-19T17:56:45.737Z,9.65
2023-05-19T17:59:13.674Z,8.90
2023-05-19T18:01:41.318Z,7.45
2023-05-19T18:04:09.593Z,6.57
2023-05-19T18:06:38.580Z,7.13
2023-05-19T18:09:11.024Z,9.68
2023-05-19T18:11:38.239Z,16.45
2023-05-19T18:14:05.786Z,15.43
2023-05-19T18:16:33.535Z,16.27
2023-05-19T18:19:01.065Z,16.23
2023-05-19T18:21:28.385Z,11.00
2023-05-19T18:23:55.824Z,6.70
2023-05-19T18:26:24.435Z,5.80
2023-05-19T18:28:51.656Z,5.47
2023-05-19T18:31:19.945Z,5.10
2023-05-19T18:33:47.684Z,5.55
2023-05-19T18:36:17.813Z,6.35
2023-05-19T18:38:45.178Z,9.20
2023-05-19T18:41:12.622Z,8.02
2023-05-19T18:43:41.214Z,6.83
2023-05-19T18:46:08.558Z,6.32
2023-05-19T18:48:36.249Z,6.28
2023-05-19T18:51:03.941Z,6.45
2023-05-19T18:53:33.766Z,6.53
2023-05-19T18:56:01.002Z,6.07
2023-05-19T18:58:28.428Z,5.88
2023-05-19T19:00:57.374Z,5.93
2023-05-19T19:03:24.996Z,6.43
2023-05-19T19:05:55.701Z,6.20
2023-05-19T19:08:23.569Z,6.03
2023-05-19T19:10:51.811Z,6.35
2023-05-19T19:13:19.220Z,7.07
2023-05-19T19:15:46.835Z,7.20
2023-05-19T19:18:15.892Z,7.40
2023-05-19T19:20:43.160Z,8.80
2023-05-19T19:23:10.379Z,9.48
2023-05-19T19:25:37.820Z,9.20
2023-05-19T19:28:05.140Z,9.27
2023-05-19T19:30:32.656Z,8.13
2023-05-19T19:33:00.343Z,8.83
2023-05-19T19:35:29.054Z,8.65
2023-05-19T19:37:56.838Z,9.00
2023-05-19T19:40:25.046Z,8.82
2023-05-19T19:42:52.282Z,9.10
2023-05-19T19:45:20.955Z,9.33
2023-05-19T19:47:48.243Z,8.77
2023-05-19T19:50:15.756Z,8.70
2023-05-19T19:52:44.337Z,7.97
2023-05-19T19:55:11.747Z,8.73
2023-05-19T19:57:38.977Z,8.67
2023-05-19T20:00:10.143Z,8.23
2023-05-19T20:02:45.523Z,7.57
2023-05-19T20:05:22.967Z,7.97
2023-05-19T20:07:51.607Z,8.50
2023-05-19T20:10:18.912Z,8.23
2023-05-19T20:12:47.944Z,9.63
2023-05-19T20:15:15.678Z,8.30
2023-05-19T20:17:42.929Z,9.30
2023-05-19T20:20:12.388Z,9.43
2023-05-19T20:22:39.640Z,8.70
2023-05-19T20:25:09.196Z,8.55
2023-05-19T20:27:36.391Z,8.05
2023-05-19T20:30:03.824Z,7.50
2023-05-19T20:32:31.130Z,8.27
2023-05-19T20:34:58.565Z,8.67
2023-05-19T20:37:25.953Z,10.23
2023-05-19T20:39:53.230Z,11.48
2023-05-19T20:42:21.839Z,12.32
2023-05-19T20:44:49.113Z,15.20
2023-05-19T20:47:16.360Z,14.13
2023-05-19T20:49:43.642Z,13.65
2023-05-19T20:52:10.998Z,12.57
2023-05-19T20:54:38.265Z,11.93
2023-05-19T20:57:09.238Z,11.70
2023-05-19T20:59:37.955Z,12.03
2023-05-19T21:02:06.494Z,10.88
2023-05-19T21:04:34.422Z,11.75
2023-05-19T21:07:01.702Z,13.02
2023-05-19T21:09:29.016Z,11.32
2023-05-19T21:11:56.371Z,10.53
2023-05-19T21:14:25.429Z,9.70
2023-05-19T21:16:56.625Z,9.05
2023-05-19T21:19:24.035Z,10.30
2023-05-19T21:21:51.269Z,11.38
2023-05-19T21:24:18.536Z,9.17
2023-05-19T21:26:45.778Z,9.27
2023-05-19T21:29:13.116Z,9.48
2023-05-19T21:31:40.465Z,8.98
2023-05-19T21:34:09.234Z,8.93
2023-05-19T21:36:36.596Z,9.20
2023-05-19T21:39:04.669Z,8.57
2023-05-19T21:41:32.564Z,9.35
2023-05-19T21:43:59.899Z,9.60
2023-05-19T21:46:29.193Z,10.20
2023-05-19T21:48:56.502Z,9.60
2023-05-19T21:51:25.200Z,9.70
2023-05-19T21:53:52.626Z,9.45
2023-05-19T21:56:19.910Z,8.85
2023-05-19T21:58:47.139Z,8.77
2023-05-19T22:01:14.740Z,8.90
2023-05-19T22:03:42.249Z,8.85
2023-05-19T22:06:09.612Z,8.73
2023-05-19T22:08:38.193Z,8.30
2023-05-19T22:11:05.703Z,8.20
2023-05-19T22:13:33.980Z,8.73
2023-05-19T22:16:01.494Z,9.70
2023-05-19T22:18:28.890Z,9.00
2023-05-19T22:20:56.180Z,9.70
2023-05-19T22:23:23.424Z,8.73
2023-05-19T22:25:52.050Z,8.77
2023-05-19T22:28:19.340Z,9.15
2023-05-19T22:30:46.720Z,8.88
2023-05-19T22:33:14.096Z,8.70
2023-05-19T22:35:42.627Z,8.93
2023-05-19T22:38:10.701Z,8.77
2023-05-19T22:40:38.189Z,8.80
2023-05-19T22:43:06.880Z,9.75
2023-05-19T22:45:34.687Z,9.52
2023-05-19T22:48:02.300Z,9.13
2023-05-19T22:50:29.584Z,9.43
2023-05-19T22:52:56.848Z,9.95
2023-05-19T22:55:24.111Z,9.52
2023-05-19T22:57:51.472Z,9.40
2023-05-19T23:00:21.088Z,9.27
2023-05-19T23:02:48.397Z,9.30
2023-05-19T23:05:15.832Z,8.85
2023-05-19T23:07:43.021Z,9.00
2023-05-19T23:10:11.090Z,9.73
2023-05-19T23:12:38.426Z,9.90
2023-05-19T23:15:07.011Z,9.40
2023-05-19T23:17:35.722Z,9.90
2023-05-19T23:20:03.801Z,9.75
2023-05-19T23:22:32.151Z,8.90
2023-05-19T23:25:02.175Z,8.75
2023-05-19T23:27:29.492Z,9.10
2023-05-19T23:29:56.988Z,9.82
2023-05-19T23:32:24.319Z,9.70
2023-05-19T23:34:53.047Z,9.55
2023-05-19T23:37:20.275Z,9.85
2023-05-19T23:39:47.550Z,9.70
2023-05-19T23:42:14.783Z,9.73
2023-05-19T23:44:42.058Z,10.20
2023-05-19T23:47:09.410Z,9.75
2023-05-19T23:49:36.669Z,9.82
2023-05-19T23:52:05.948Z,9.40
2023-05-19T23:54:33.238Z,9.35
2023-05-19T23:57:02.210Z,9.55
2023-05-19T23:59:29.530Z,9.20
